createdAt,value
2023-04-15T00:00:30.403Z,0.00
2023-04-15T00:01:29.796Z,0.00
2023-04-15T00:02:30.945Z,0.00
2023-04-15T00:03:30.379Z,0.00
2023-04-15T00:04:30.538Z,0.00
2023-04-15T00:05:30.546Z,0.00
2023-04-15T00:06:31.400Z,0.00
2023-04-15T00:07:30.939Z,0.00
2023-04-15T00:08:31.104Z,0.00
2023-04-15T00:09:31.856Z,0.00
2023-04-15T00:10:31.376Z,0.00
2023-04-15T00:11:31.557Z,0.00
2023-04-15T00:12:31.788Z,0.00
2023-04-15T00:13:31.941Z,0.00
2023-04-15T00:14:32.900Z,0.00
2023-04-15T00:15:32.309Z,0.00
2023-04-15T00:16:32.481Z,0.00
2023-04-15T00:17:32.962Z,0.00
2023-04-15T00:18:32.888Z,0.00
2023-04-15T00:19:34.362Z,0.00
2023-04-15T00:20:33.244Z,0.00
2023-04-15T00:21:33.406Z,0.00
2023-04-15T00:22:34.361Z,0.00
2023-04-15T00:23:33.781Z,0.00
2023-04-15T00:24:33.940Z,0.00
2023-04-15T00:25:34.101Z,0.00
2023-04-15T00:26:34.254Z,0.00
2023-04-15T00:27:35.362Z,0.00
2023-04-15T00:28:34.629Z,0.00
2023-04-15T00:29:35.300Z,0.00
2023-04-15T00:30:34.979Z,0.00
2023-04-15T00:31:35.138Z,0.00
2023-04-15T00:32:35.939Z,0.00
2023-04-15T00:33:35.519Z,0.00
2023-04-15T00:34:35.614Z,0.00
2023-04-15T00:35:36.405Z,0.00
2023-04-15T00:36:35.957Z,0.00
2023-04-15T00:37:36.865Z,0.00
2023-04-15T00:38:36.420Z,0.00
2023-04-15T00:39:36.619Z,0.00
2023-04-15T00:40:36.812Z,0.00
2023-04-15T00:41:37.011Z,0.00
2023-04-15T00:42:37.183Z,0.00
2023-04-15T00:43:37.392Z,0.00
2023-04-15T00:44:37.561Z,0.00
2023-04-15T00:45:39.367Z,0.00
2023-04-15T00:46:37.894Z,0.00
2023-04-15T00:47:38.928Z,0.00
2023-04-15T00:48:38.229Z,0.00
2023-04-15T00:49:38.422Z,0.00
2023-04-15T00:50:38.651Z,0.00
2023-04-15T00:51:38.809Z,0.00
2023-04-15T00:52:39.415Z,0.00
2023-04-15T00:53:39.234Z,0.00
2023-04-15T00:54:39.416Z,0.00
2023-04-15T00:55:39.613Z,0.00
2023-04-15T00:56:39.767Z,0.00
2023-04-15T00:57:41.370Z,0.00
2023-04-15T00:58:41.893Z,0.00
2023-04-15T00:59:40.881Z,0.00
2023-04-15T01:00:40.414Z,0.00
2023-04-15T01:01:40.616Z,0.00
2023-04-15T01:02:40.810Z,0.00
2023-04-15T01:03:40.997Z,0.00
2023-04-15T01:04:41.970Z,0.00
2023-04-15T01:05:41.420Z,0.00
2023-04-15T01:06:41.913Z,0.00
2023-04-15T01:07:41.559Z,0.00
2023-04-15T01:08:41.759Z,0.00
2023-04-15T01:09:41.914Z,0.00
2023-04-15T01:10:42.082Z,0.00
2023-04-15T01:11:42.250Z,0.00
2023-04-15T01:12:43.428Z,0.00
2023-04-15T01:13:43.440Z,0.00
2023-04-15T01:14:43.414Z,0.00
2023-04-15T01:15:43.885Z,0.00
2023-04-15T01:16:44.906Z,0.00
2023-04-15T01:17:43.318Z,0.00
2023-04-15T01:18:43.518Z,0.00
2023-04-15T01:19:43.697Z,0.00
2023-04-15T01:20:43.868Z,0.00
2023-04-15T01:21:44.062Z,0.00
2023-04-15T01:22:44.255Z,0.00
2023-04-15T01:23:44.413Z,0.00
2023-04-15T01:24:44.602Z,0.00
2023-04-15T01:25:45.409Z,0.00
2023-04-15T01:26:44.914Z,0.00
2023-04-15T01:27:46.874Z,0.00
2023-04-15T01:28:45.233Z,0.00
2023-04-15T01:29:45.410Z,0.00
2023-04-15T01:30:46.419Z,0.00
2023-04-15T01:31:45.758Z,0.00
2023-04-15T01:32:46.914Z,0.00
2023-04-15T01:33:46.881Z,0.00
2023-04-15T01:34:46.875Z,0.00
2023-04-15T01:35:46.510Z,0.00
2023-04-15T01:36:48.878Z,0.00
2023-04-15T01:37:46.875Z,0.00
2023-04-15T01:38:47.055Z,0.00
2023-04-15T01:39:47.875Z,0.00
2023-04-15T01:40:47.424Z,0.00
2023-04-15T01:41:47.623Z,0.00
2023-04-15T01:42:47.807Z,0.00
2023-04-15T01:43:48.427Z,0.00
2023-04-15T01:44:48.918Z,0.00
2023-04-15T01:45:48.362Z,0.00
2023-04-15T01:46:49.510Z,0.00
2023-04-15T01:47:49.454Z,0.00
2023-04-15T01:48:49.882Z,0.00
2023-04-15T01:49:49.020Z,0.00
2023-04-15T01:50:49.905Z,0.00
2023-04-15T01:51:49.421Z,0.00
2023-04-15T01:52:50.417Z,0.00
2023-04-15T01:53:49.833Z,0.00
2023-04-15T01:54:49.996Z,0.00
2023-04-15T01:55:50.176Z,0.00
2023-04-15T01:56:50.884Z,0.00
2023-04-15T01:57:50.531Z,0.00
2023-04-15T01:58:50.939Z,0.00
2023-04-15T01:59:50.848Z,0.00
2023-04-15T02:00:51.972Z,0.00
2023-04-15T02:01:51.260Z,0.00
2023-04-15T02:02:52.530Z,0.00
2023-04-15T02:03:51.706Z,0.00
2023-04-15T02:04:51.798Z,0.00
2023-04-15T02:05:53.879Z,0.00
2023-04-15T02:06:52.554Z,0.00
2023-04-15T02:07:52.524Z,0.00
2023-04-15T02:08:53.379Z,0.00
2023-04-15T02:09:52.754Z,0.00
2023-04-15T02:10:53.927Z,0.00
2023-04-15T02:11:53.174Z,0.00
2023-04-15T02:12:54.885Z,0.00
2023-04-15T02:13:53.528Z,0.00
2023-04-15T02:14:54.433Z,0.00
2023-04-15T02:15:53.847Z,0.00
2023-04-15T02:16:54.024Z,0.00
2023-04-15T02:17:54.826Z,0.00
2023-04-15T02:18:54.359Z,0.00
2023-04-15T02:19:54.568Z,0.00
2023-04-15T02:20:54.720Z,0.00
2023-04-15T02:21:55.335Z,0.00
2023-04-15T02:22:55.888Z,0.00
2023-04-15T02:23:55.140Z,0.00
2023-04-15T02:24:55.302Z,0.00
2023-04-15T02:25:56.392Z,0.00
2023-04-15T02:26:55.678Z,0.00
2023-04-15T02:27:56.758Z,0.00
2023-04-15T02:28:56.048Z,0.00
2023-04-15T02:29:56.227Z,0.00
2023-04-15T02:30:56.377Z,0.00
2023-04-15T02:31:56.556Z,0.00
2023-04-15T02:32:57.463Z,0.00
2023-04-15T02:33:56.914Z,0.00
2023-04-15T02:34:57.079Z,0.00
2023-04-15T02:35:57.266Z,0.00
2023-04-15T02:36:57.439Z,0.00
2023-04-15T02:37:58.439Z,0.00
2023-04-15T02:38:57.836Z,0.00
2023-04-15T02:39:58.001Z,0.00
2023-04-15T02:40:58.187Z,0.00
2023-04-15T02:41:58.367Z,0.00
2023-04-15T02:42:58.573Z,0.00
2023-04-15T02:43:59.892Z,0.00
2023-04-15T02:45:00.391Z,0.00
2023-04-15T02:46:00.438Z,0.00
2023-04-15T02:46:59.941Z,0.00
2023-04-15T02:47:59.505Z,0.00
2023-04-15T02:49:00.051Z,0.00
2023-04-15T02:49:59.777Z,0.00
2023-04-15T02:50:59.972Z,0.00
2023-04-15T02:52:00.187Z,0.00
2023-04-15T02:53:00.893Z,0.00
2023-04-15T02:54:00.527Z,0.00
2023-04-15T02:55:00.694Z,0.00
2023-04-15T02:56:01.436Z,0.00
2023-04-15T02:57:02.901Z,0.00
2023-04-15T02:58:01.940Z,0.00
2023-04-15T02:59:01.835Z,0.00
2023-04-15T03:00:03.343Z,0.00
2023-04-15T03:01:02.473Z,0.00
2023-04-15T03:02:02.954Z,0.00
2023-04-15T03:03:02.218Z,0.00
2023-04-15T03:04:02.508Z,0.00
2023-04-15T03:05:03.538Z,0.00
2023-04-15T03:06:04.436Z,0.00
2023-04-15T03:07:02.799Z,0.00
2023-04-15T03:08:03.898Z,0.00
2023-04-15T03:09:03.244Z,0.00
2023-04-15T03:10:03.341Z,0.00
2023-04-15T03:11:03.492Z,0.00
2023-04-15T03:12:03.604Z,0.00
2023-04-15T03:13:03.751Z,0.00
2023-04-15T03:14:03.900Z,0.00
2023-04-15T03:15:04.960Z,0.00
2023-04-15T03:16:04.328Z,0.00
2023-04-15T03:17:05.939Z,0.00
2023-04-15T03:18:04.544Z,0.00
2023-04-15T03:19:05.440Z,0.00
2023-04-15T03:20:04.876Z,0.00
2023-04-15T03:21:05.896Z,0.00
2023-04-15T03:22:06.265Z,0.00
2023-04-15T03:23:05.405Z,0.00
2023-04-15T03:24:05.576Z,0.00
2023-04-15T03:25:05.897Z,0.00
2023-04-15T03:26:08.407Z,0.00
2023-04-15T03:27:07.844Z,0.00
2023-04-15T03:28:06.356Z,0.00
2023-04-15T03:29:07.433Z,0.00
2023-04-15T03:30:07.402Z,0.00
2023-04-15T03:31:06.845Z,0.00
2023-04-15T03:32:07.015Z,0.00
2023-04-15T03:33:07.203Z,0.00
2023-04-15T03:34:07.406Z,0.00
2023-04-15T03:35:07.621Z,0.00
2023-04-15T03:36:08.439Z,0.00
2023-04-15T03:37:08.902Z,0.00
2023-04-15T03:38:08.213Z,0.00
2023-04-15T03:39:08.374Z,0.00
2023-04-15T03:40:10.354Z,0.00
2023-04-15T03:41:09.399Z,0.00
2023-04-15T03:42:09.439Z,0.00
2023-04-15T03:43:09.109Z,0.00
2023-04-15T03:44:09.282Z,0.00
2023-04-15T03:45:09.492Z,0.00
2023-04-15T03:46:09.683Z,0.00
2023-04-15T03:47:09.861Z,0.00
2023-04-15T03:48:16.541Z,0.00
2023-04-15T03:49:12.155Z,0.00
2023-04-15T03:50:10.277Z,0.00
2023-04-15T03:51:10.441Z,0.00
2023-04-15T03:52:10.620Z,0.00
2023-04-15T03:53:11.434Z,0.00
2023-04-15T03:54:10.968Z,0.00
2023-04-15T03:55:11.901Z,0.00
2023-04-15T03:56:32.957Z,0.00
2023-04-15T03:57:11.437Z,0.00
2023-04-15T03:58:12.989Z,0.00
2023-04-15T03:59:11.807Z,0.00
2023-04-15T04:00:13.419Z,0.00
2023-04-15T04:01:13.414Z,0.00
2023-04-15T04:02:12.390Z,0.00
2023-04-15T04:03:12.607Z,0.00
2023-04-15T04:04:12.905Z,0.00
2023-04-15T04:05:13.830Z,0.00
2023-04-15T04:06:13.909Z,0.00
2023-04-15T04:07:13.471Z,0.00
2023-04-15T04:08:14.033Z,4.00
2023-04-15T04:09:13.590Z,4.00
2023-04-15T04:10:16.274Z,4.00
2023-04-15T04:11:15.927Z,0.00
2023-04-15T04:12:14.174Z,4.00
2023-04-15T04:13:14.330Z,4.00
2023-04-15T04:14:14.473Z,4.00
2023-04-15T04:15:16.420Z,4.00
2023-04-15T04:16:16.004Z,8.00
2023-04-15T04:17:14.975Z,8.00
2023-04-15T04:18:15.140Z,8.00
2023-04-15T04:19:15.298Z,12.00
2023-04-15T04:20:15.953Z,16.00
2023-04-15T04:21:15.603Z,16.00
2023-04-15T04:22:16.447Z,20.00
2023-04-15T04:23:16.911Z,24.00
2023-04-15T04:24:17.404Z,24.00
2023-04-15T04:25:17.957Z,28.00
2023-04-15T04:26:16.579Z,32.00
2023-04-15T04:27:17.408Z,36.00
2023-04-15T04:28:16.930Z,44.00
2023-04-15T04:29:17.953Z,48.00
2023-04-15T04:30:17.953Z,52.00
2023-04-15T04:31:17.953Z,56.00
2023-04-15T04:32:19.421Z,64.00
2023-04-15T04:33:18.418Z,68.00
2023-04-15T04:34:18.463Z,72.00
2023-04-15T04:35:19.916Z,76.00
2023-04-15T04:36:18.957Z,84.00
2023-04-15T04:37:19.471Z,88.00
2023-04-15T04:38:18.961Z,96.00
2023-04-15T04:39:18.868Z,96.00
2023-04-15T04:40:19.955Z,104.00
2023-04-15T04:41:19.234Z,112.00
2023-04-15T04:42:19.908Z,120.00
2023-04-15T04:43:20.917Z,128.00
2023-04-15T04:44:19.819Z,136.00
2023-04-15T04:45:19.980Z,148.00
2023-04-15T04:46:20.171Z,156.00
2023-04-15T04:47:20.373Z,168.00
2023-04-15T04:48:21.446Z,176.00
2023-04-15T04:49:20.803Z,188.00
2023-04-15T04:50:21.910Z,204.00
2023-04-15T04:51:21.928Z,216.00
2023-04-15T04:52:21.985Z,228.00
2023-04-15T04:53:22.483Z,244.00
2023-04-15T04:54:22.410Z,260.00
2023-04-15T04:55:21.770Z,276.00
2023-04-15T04:56:21.893Z,292.00
2023-04-15T04:57:22.034Z,304.00
2023-04-15T04:58:23.927Z,324.00
2023-04-15T04:59:22.426Z,340.00
2023-04-15T05:00:23.484Z,356.00
2023-04-15T05:01:23.491Z,376.00
2023-04-15T05:02:23.043Z,396.00
2023-04-15T05:03:24.132Z,424.00
2023-04-15T05:04:23.309Z,448.00
2023-04-15T05:05:23.473Z,476.00
2023-04-15T05:06:23.976Z,504.00
2023-04-15T05:07:23.775Z,540.00
2023-04-15T05:08:25.417Z,572.00
2023-04-15T05:09:24.177Z,608.00
2023-04-15T05:10:24.920Z,644.00
2023-04-15T05:11:26.426Z,676.00
2023-04-15T05:12:24.797Z,708.00
2023-04-15T05:13:26.429Z,740.00
2023-04-15T05:14:25.212Z,768.00
2023-04-15T05:15:25.403Z,792.00
2023-04-15T05:16:26.459Z,816.00
2023-04-15T05:17:26.041Z,840.00
2023-04-15T05:18:26.467Z,864.00
2023-04-15T05:19:26.919Z,888.00
2023-04-15T05:20:26.178Z,908.00
2023-04-15T05:21:26.343Z,932.00
2023-04-15T05:22:26.554Z,956.00
2023-04-15T05:23:27.432Z,976.00
2023-04-15T05:24:26.939Z,996.00
2023-04-15T05:25:27.928Z,1016.00
2023-04-15T05:26:28.954Z,1036.00
2023-04-15T05:27:27.983Z,1056.00
2023-04-15T05:28:27.664Z,1072.00
2023-04-15T05:29:27.874Z,1092.00
2023-04-15T05:30:28.031Z,1120.00
2023-04-15T05:31:28.245Z,1144.00
2023-04-15T05:32:28.400Z,1176.00
2023-04-15T05:33:28.479Z,1212.00
2023-04-15T05:34:28.637Z,1248.00
2023-04-15T05:35:28.801Z,1284.00
2023-04-15T05:36:28.979Z,1324.00
2023-04-15T05:37:30.917Z,1368.00
2023-04-15T05:38:29.425Z,1408.00
2023-04-15T05:39:30.427Z,1448.00
2023-04-15T05:40:29.874Z,1488.00
2023-04-15T05:41:30.976Z,1528.00
2023-04-15T05:42:31.939Z,1572.00
2023-04-15T05:43:31.020Z,1620.00
2023-04-15T05:44:30.537Z,1676.00
2023-04-15T05:45:31.423Z,1732.00
2023-04-15T05:46:30.865Z,1788.00
2023-04-15T05:47:30.971Z,1836.00
2023-04-15T05:48:31.797Z,1892.00
2023-04-15T05:49:31.181Z,1944.00
2023-04-15T05:50:31.481Z,1996.00
2023-04-15T05:51:31.547Z,2040.00
2023-04-15T05:52:31.726Z,2080.00
2023-04-15T05:53:33.470Z,2112.00
2023-04-15T05:54:32.116Z,2144.00
2023-04-15T05:55:32.322Z,2172.00
2023-04-15T05:56:32.513Z,2192.00
2023-04-15T05:57:32.692Z,2212.00
2023-04-15T05:58:33.470Z,2244.00
2023-04-15T05:59:33.488Z,2260.00
2023-04-15T06:00:33.255Z,2280.00
2023-04-15T06:01:34.000Z,2300.00
2023-04-15T06:02:34.594Z,2316.00
2023-04-15T06:03:34.551Z,2332.00
2023-04-15T06:04:34.639Z,2348.00
2023-04-15T06:05:34.166Z,2372.00
2023-04-15T06:06:35.291Z,2384.00
2023-04-15T06:07:35.432Z,2404.00
2023-04-15T06:08:36.432Z,2412.00
2023-04-15T06:09:34.913Z,2424.00
2023-04-15T06:10:35.174Z,2424.00
2023-04-15T06:11:35.338Z,2436.00
2023-04-15T06:12:35.517Z,2456.00
2023-04-15T06:13:35.686Z,2488.00
2023-04-15T06:14:35.887Z,2520.00
2023-04-15T06:15:36.981Z,2544.00
2023-04-15T06:16:36.374Z,2568.00
2023-04-15T06:17:36.528Z,2592.00
2023-04-15T06:18:36.676Z,2612.00
2023-04-15T06:19:38.148Z,2632.00
2023-04-15T06:20:39.034Z,2652.00
2023-04-15T06:21:37.273Z,2676.00
2023-04-15T06:22:37.416Z,2704.00
2023-04-15T06:23:37.551Z,2732.00
2023-04-15T06:24:37.740Z,2756.00
2023-04-15T06:25:37.900Z,2764.00
2023-04-15T06:26:39.435Z,2776.00
2023-04-15T06:27:38.206Z,2788.00
2023-04-15T06:28:38.407Z,2796.00
2023-04-15T06:29:38.592Z,2812.00
2023-04-15T06:30:38.755Z,2828.00
2023-04-15T06:31:40.024Z,2860.00
2023-04-15T06:32:39.956Z,2892.00
2023-04-15T06:33:39.269Z,2924.00
2023-04-15T06:34:39.979Z,2960.00
2023-04-15T06:35:40.494Z,2992.00
2023-04-15T06:36:40.427Z,3024.00
2023-04-15T06:37:40.018Z,3056.00
2023-04-15T06:38:40.202Z,3088.00
2023-04-15T06:39:40.972Z,3128.00
2023-04-15T06:40:41.501Z,3148.00
2023-04-15T06:41:41.446Z,3176.00
2023-04-15T06:42:40.985Z,3192.00
2023-04-15T06:43:41.145Z,3212.00
2023-04-15T06:44:42.926Z,3228.00
2023-04-15T06:45:41.615Z,3244.00
2023-04-15T06:46:41.802Z,3256.00
2023-04-15T06:47:42.033Z,3260.00
2023-04-15T06:48:42.136Z,3264.00
2023-04-15T06:49:42.973Z,3260.00
2023-04-15T06:50:42.501Z,3248.00
2023-04-15T06:51:42.682Z,3236.00
2023-04-15T06:52:44.425Z,3224.00
2023-04-15T06:53:44.079Z,3220.00
2023-04-15T06:54:43.941Z,3212.00
2023-04-15T06:55:44.803Z,3204.00
2023-04-15T06:56:44.444Z,3212.00
2023-04-15T06:57:44.497Z,3220.00
2023-04-15T06:58:43.869Z,3244.00
2023-04-15T06:59:44.038Z,3284.00
2023-04-15T07:00:44.216Z,3332.00
2023-04-15T07:01:44.423Z,3388.00
2023-04-15T07:02:44.789Z,3468.00
2023-04-15T07:03:45.490Z,3544.00
2023-04-15T07:04:44.968Z,3616.00
2023-04-15T07:05:46.935Z,3704.00
2023-04-15T07:06:45.292Z,3800.00
2023-04-15T07:07:46.402Z,3912.00
2023-04-15T07:08:46.629Z,4032.00
2023-04-15T07:09:45.738Z,4168.00
2023-04-15T07:10:45.898Z,4292.00
2023-04-15T07:11:47.936Z,4432.00
2023-04-15T07:12:46.991Z,4576.00
2023-04-15T07:13:46.525Z,4752.00
2023-04-15T07:14:47.481Z,4980.00
2023-04-15T07:15:47.934Z,5120.00
2023-04-15T07:16:48.022Z,5244.00
2023-04-15T07:17:47.374Z,5400.00
2023-04-15T07:18:47.537Z,5536.00
2023-04-15T07:19:48.481Z,5672.00
2023-04-15T07:20:49.433Z,5828.00
2023-04-15T07:21:48.980Z,6016.00
2023-04-15T07:22:48.252Z,6208.00
2023-04-15T07:23:48.980Z,6396.00
2023-04-15T07:24:49.483Z,6604.00
2023-04-15T07:25:49.494Z,6844.00
2023-04-15T07:26:48.901Z,7092.00
2023-04-15T07:27:49.498Z,7392.00
2023-04-15T07:28:49.312Z,7780.00
2023-04-15T07:29:50.443Z,8340.00
2023-04-15T07:30:50.507Z,9200.00
2023-04-15T07:31:50.447Z,9848.00
2023-04-15T07:32:50.010Z,10608.00
2023-04-15T07:33:50.942Z,10740.00
2023-04-15T07:34:50.996Z,11600.00
2023-04-15T07:35:50.529Z,12504.00
2023-04-15T07:36:50.722Z,12708.00
2023-04-15T07:37:51.443Z,12524.00
2023-04-15T07:38:51.113Z,12360.00
2023-04-15T07:39:51.274Z,13140.00
2023-04-15T07:40:52.018Z,14460.00
2023-04-15T07:41:52.495Z,14756.00
2023-04-15T07:42:52.536Z,15176.00
2023-04-15T07:43:52.519Z,14396.00
2023-04-15T07:44:52.195Z,14556.00
2023-04-15T07:45:52.414Z,14568.00
2023-04-15T07:46:52.498Z,15100.00
2023-04-15T07:47:52.711Z,12720.00
2023-04-15T07:48:53.008Z,12060.00
2023-04-15T07:49:53.498Z,12832.00
2023-04-15T07:50:53.546Z,15968.00
2023-04-15T07:51:53.370Z,18688.00
2023-04-15T07:52:54.453Z,16768.00
2023-04-15T07:53:53.733Z,15036.00
2023-04-15T07:54:53.900Z,14048.00
2023-04-15T07:55:54.142Z,13124.00
2023-04-15T07:56:54.214Z,12548.00
2023-04-15T07:57:55.961Z,11348.00
2023-04-15T07:58:56.456Z,11116.00
2023-04-15T07:59:55.455Z,7540.00
2023-04-15T08:00:55.004Z,10064.00
2023-04-15T08:01:56.016Z,7420.00
2023-04-15T08:02:55.416Z,10028.00
2023-04-15T08:03:55.903Z,9440.00
2023-04-15T08:04:56.522Z,8276.00
2023-04-15T08:05:56.017Z,7296.00
2023-04-15T08:06:56.129Z,6408.00
2023-04-15T08:07:56.304Z,6936.00
2023-04-15T08:08:57.590Z,6532.00
2023-04-15T08:09:56.714Z,6152.00
2023-04-15T08:10:57.498Z,5540.00
2023-04-15T08:11:57.041Z,5140.00
2023-04-15T08:12:58.459Z,5376.00
2023-04-15T08:13:57.963Z,5160.00
2023-04-15T08:14:58.496Z,5144.00
2023-04-15T08:15:58.532Z,5424.00
2023-04-15T08:16:58.989Z,5404.00
2023-04-15T08:17:58.967Z,5244.00
2023-04-15T08:19:00.197Z,5296.00
2023-04-15T08:19:58.330Z,5568.00
2023-04-15T08:20:58.494Z,6072.00
2023-04-15T08:21:59.327Z,6316.00
2023-04-15T08:22:59.467Z,7160.00
2023-04-15T08:23:58.980Z,7456.00
2023-04-15T08:24:59.134Z,7644.00
2023-04-15T08:25:59.285Z,8204.00
2023-04-15T08:26:59.444Z,8988.00
2023-04-15T08:27:59.618Z,9608.00
2023-04-15T08:29:00.037Z,8836.00
2023-04-15T08:30:03.425Z,10320.00
2023-04-15T08:31:00.215Z,9692.00
2023-04-15T08:32:01.042Z,8772.00
2023-04-15T08:33:00.652Z,9040.00
2023-04-15T08:34:00.744Z,8128.00
2023-04-15T08:35:01.470Z,8480.00
2023-04-15T08:36:01.996Z,8156.00
2023-04-15T08:37:03.329Z,8416.00
2023-04-15T08:38:01.568Z,7888.00
2023-04-15T08:39:02.720Z,7340.00
2023-04-15T08:40:02.460Z,6804.00
2023-04-15T08:41:02.964Z,6740.00
2023-04-15T08:42:02.993Z,7004.00
2023-04-15T08:43:02.388Z,6876.00
2023-04-15T08:44:03.514Z,6628.00
2023-04-15T08:45:04.473Z,6796.00
2023-04-15T08:46:03.970Z,6892.00
2023-04-15T08:47:04.934Z,6616.00
2023-04-15T08:48:03.629Z,6296.00
2023-04-15T08:49:05.050Z,6008.00
2023-04-15T08:50:03.735Z,5612.00
2023-04-15T08:51:04.535Z,4908.00
2023-04-15T08:52:04.061Z,4336.00
2023-04-15T08:53:04.257Z,4072.00
2023-04-15T08:54:04.431Z,3664.00
2023-04-15T08:55:04.622Z,3420.00
2023-04-15T08:56:04.799Z,3448.00
2023-04-15T08:57:04.989Z,3436.00
2023-04-15T08:58:05.160Z,3444.00
2023-04-15T08:59:05.334Z,3660.00
2023-04-15T09:00:05.909Z,4012.00
2023-04-15T09:01:06.562Z,3976.00
2023-04-15T09:02:06.555Z,4144.00
2023-04-15T09:03:07.020Z,4524.00
2023-04-15T09:04:06.357Z,4876.00
2023-04-15T09:05:06.536Z,5232.00
2023-04-15T09:06:07.645Z,5720.00
2023-04-15T09:07:07.511Z,5872.00
2023-04-15T09:08:07.526Z,6692.00
2023-04-15T09:09:07.215Z,5564.00
2023-04-15T09:10:07.380Z,4960.00
2023-04-15T09:11:07.514Z,4344.00
2023-04-15T09:12:07.675Z,4072.00
2023-04-15T09:13:08.555Z,3876.00
2023-04-15T09:14:08.057Z,3676.00
2023-04-15T09:15:08.237Z,3596.00
2023-04-15T09:16:09.889Z,3476.00
2023-04-15T09:17:08.650Z,3392.00
2023-04-15T09:18:08.838Z,3892.00
2023-04-15T09:19:09.014Z,4920.00
2023-04-15T09:20:10.984Z,5744.00
2023-04-15T09:21:09.393Z,5820.00
2023-04-15T09:22:10.543Z,5292.00
2023-04-15T09:23:09.808Z,4636.00
2023-04-15T09:24:11.476Z,3804.00
2023-04-15T09:25:10.235Z,2980.00
2023-04-15T09:26:10.436Z,2452.00
2023-04-15T09:27:10.593Z,2184.00
2023-04-15T09:28:10.742Z,2036.00
2023-04-15T09:29:11.040Z,2004.00
2023-04-15T09:30:11.546Z,2024.00
2023-04-15T09:31:11.225Z,2084.00
2023-04-15T09:32:11.449Z,2196.00
2023-04-15T09:33:11.613Z,2260.00
2023-04-15T09:34:12.478Z,2188.00
2023-04-15T09:35:12.010Z,2612.00
2023-04-15T09:36:12.173Z,2736.00
2023-04-15T09:37:17.733Z,2640.00
2023-04-15T09:38:14.471Z,2500.00
2023-04-15T09:39:12.717Z,2680.00
2023-04-15T09:40:12.899Z,3224.00
2023-04-15T09:41:13.090Z,3776.00
2023-04-15T09:42:14.020Z,4004.00
2023-04-15T09:43:13.416Z,3932.00
2023-04-15T09:44:14.481Z,3852.00
2023-04-15T09:45:13.719Z,3568.00
2023-04-15T09:46:14.537Z,3456.00
2023-04-15T09:47:15.989Z,3384.00
2023-04-15T09:48:14.931Z,3216.00
2023-04-15T09:49:16.042Z,3000.00
2023-04-15T09:50:14.661Z,2744.00
2023-04-15T09:51:14.844Z,2776.00
2023-04-15T09:52:14.993Z,2984.00
2023-04-15T09:53:15.132Z,3052.00
2023-04-15T09:54:15.262Z,2920.00
2023-04-15T09:55:15.990Z,2828.00
2023-04-15T09:56:15.670Z,3092.00
2023-04-15T09:57:17.350Z,3396.00
2023-04-15T09:58:17.020Z,3608.00
2023-04-15T09:59:20.015Z,3716.00
2023-04-15T10:00:16.466Z,3680.00
2023-04-15T10:01:16.651Z,3852.00
2023-04-15T10:02:17.601Z,3824.00
2023-04-15T10:03:17.129Z,3784.00
2023-04-15T10:04:17.239Z,3840.00
2023-04-15T10:05:17.550Z,3384.00
2023-04-15T10:06:19.000Z,2840.00
2023-04-15T10:07:17.742Z,2452.00
2023-04-15T10:08:17.897Z,2188.00
2023-04-15T10:09:18.026Z,2052.00
2023-04-15T10:10:18.223Z,1992.00
2023-04-15T10:11:18.386Z,1992.00
2023-04-15T10:12:18.556Z,2004.00
2023-04-15T10:13:19.548Z,2012.00
2023-04-15T10:14:19.515Z,2024.00
2023-04-15T10:15:19.186Z,2144.00
2023-04-15T10:16:19.953Z,2468.00
2023-04-15T10:17:20.057Z,2524.00
2023-04-15T10:18:20.356Z,2496.00
2023-04-15T10:19:20.525Z,2460.00
2023-04-15T10:20:20.040Z,2440.00
2023-04-15T10:21:21.039Z,2500.00
2023-04-15T10:22:20.419Z,2560.00
2023-04-15T10:23:20.581Z,2216.00
2023-04-15T10:24:20.739Z,2152.00
2023-04-15T10:25:21.546Z,2332.00
2023-04-15T10:26:22.061Z,2388.00
2023-04-15T10:27:21.190Z,2360.00
2023-04-15T10:28:21.341Z,2388.00
2023-04-15T10:29:21.608Z,2300.00
2023-04-15T10:30:21.760Z,2168.00
2023-04-15T10:31:21.997Z,2164.00
2023-04-15T10:32:23.046Z,2096.00
2023-04-15T10:33:22.272Z,2032.00
2023-04-15T10:34:23.858Z,2092.00
2023-04-15T10:35:23.558Z,2056.00
2023-04-15T10:36:23.559Z,1952.00
2023-04-15T10:37:22.993Z,1864.00
2023-04-15T10:38:24.064Z,1716.00
2023-04-15T10:39:23.396Z,1748.00
2023-04-15T10:40:24.553Z,1736.00
2023-04-15T10:41:24.360Z,1768.00
2023-04-15T10:42:24.044Z,1680.00
2023-04-15T10:43:25.029Z,1648.00
2023-04-15T10:44:25.426Z,1752.00
2023-04-15T10:45:24.588Z,1788.00
2023-04-15T10:46:24.827Z,1800.00
2023-04-15T10:47:26.073Z,1952.00
2023-04-15T10:48:26.038Z,1928.00
2023-04-15T10:49:26.036Z,1952.00
2023-04-15T10:50:25.565Z,2144.00
2023-04-15T10:51:25.783Z,2452.00
2023-04-15T10:52:26.539Z,2564.00
2023-04-15T10:53:26.546Z,2476.00
2023-04-15T10:54:26.347Z,2232.00
2023-04-15T10:55:27.034Z,2172.00
2023-04-15T10:56:28.444Z,2016.00
2023-04-15T10:57:27.510Z,1992.00
2023-04-15T10:58:27.555Z,1948.00
2023-04-15T10:59:29.206Z,1852.00
2023-04-15T11:00:28.047Z,1748.00
2023-04-15T11:01:28.624Z,1800.00
2023-04-15T11:02:28.690Z,1836.00
2023-04-15T11:03:28.138Z,1744.00
2023-04-15T11:04:28.375Z,1700.00
2023-04-15T11:05:29.036Z,1716.00
2023-04-15T11:06:28.687Z,1728.00
2023-04-15T11:07:29.553Z,1876.00
2023-04-15T11:08:30.005Z,1928.00
2023-04-15T11:09:29.254Z,1988.00
2023-04-15T11:10:29.468Z,2068.00
2023-04-15T11:11:30.560Z,2052.00
2023-04-15T11:12:31.509Z,2016.00
2023-04-15T11:13:31.517Z,2148.00
2023-04-15T11:14:31.519Z,2156.00
2023-04-15T11:15:30.278Z,1988.00
2023-04-15T11:16:31.101Z,2272.00
2023-04-15T11:17:30.746Z,2476.00
2023-04-15T11:18:30.867Z,2224.00
2023-04-15T11:19:31.505Z,2140.00
2023-04-15T11:20:32.003Z,2228.00
2023-04-15T11:21:32.063Z,2140.00
2023-04-15T11:22:31.591Z,2124.00
2023-04-15T11:23:31.785Z,1992.00
2023-04-15T11:24:33.368Z,1912.00
2023-04-15T11:25:32.118Z,1844.00
2023-04-15T11:26:33.046Z,1824.00
2023-04-15T11:27:32.436Z,1924.00
2023-04-15T11:28:32.590Z,2100.00
2023-04-15T11:29:32.798Z,2040.00
2023-04-15T11:30:34.499Z,2008.00
2023-04-15T11:31:33.166Z,1892.00
2023-04-15T11:32:33.389Z,1792.00
2023-04-15T11:33:33.628Z,1840.00
2023-04-15T11:34:54.833Z,2084.00
2023-04-15T11:35:34.937Z,1968.00
2023-04-15T11:36:34.555Z,1864.00
2023-04-15T11:37:35.053Z,1628.00
2023-04-15T11:38:34.484Z,1476.00
2023-04-15T11:39:34.701Z,1516.00
2023-04-15T11:40:36.381Z,1528.00
2023-04-15T11:41:36.512Z,1732.00
2023-04-15T11:42:49.038Z,1916.00
2023-04-15T11:43:37.462Z,2108.00
2023-04-15T11:44:37.517Z,2304.00
2023-04-15T11:45:35.807Z,1884.00
2023-04-15T11:46:36.508Z,1900.00
2023-04-15T11:47:36.275Z,1748.00
2023-04-15T11:48:37.027Z,1808.00
2023-04-15T11:49:38.015Z,1860.00
2023-04-15T11:50:37.064Z,1896.00
2023-04-15T11:51:37.035Z,1908.00
2023-04-15T11:52:38.060Z,1772.00
2023-04-15T11:53:37.345Z,1624.00
2023-04-15T11:54:37.506Z,1704.00
2023-04-15T11:55:37.696Z,1736.00
2023-04-15T11:56:38.514Z,1736.00
2023-04-15T11:57:38.022Z,1680.00
2023-04-15T11:58:38.218Z,1668.00
2023-04-15T11:59:45.212Z,1504.00
2023-04-15T12:00:41.567Z,1440.00
2023-04-15T12:01:38.778Z,1640.00
2023-04-15T12:02:39.979Z,1668.00
2023-04-15T12:03:40.184Z,1948.00
2023-04-15T12:04:40.119Z,2060.00
2023-04-15T12:05:40.019Z,1836.00
2023-04-15T12:06:39.557Z,1828.00
2023-04-15T12:07:39.711Z,2048.00
2023-04-15T12:08:40.524Z,2320.00
2023-04-15T12:09:40.592Z,2264.00
2023-04-15T12:10:40.274Z,2256.00
2023-04-15T12:11:40.519Z,2032.00
2023-04-15T12:12:41.570Z,1996.00
2023-04-15T12:13:41.566Z,2072.00
2023-04-15T12:14:41.104Z,2284.00
2023-04-15T12:15:41.368Z,2340.00
2023-04-15T12:16:48.947Z,2036.00
2023-04-15T12:17:51.816Z,2024.00
2023-04-15T12:18:43.537Z,1860.00
2023-04-15T12:19:42.559Z,1804.00
2023-04-15T12:20:42.089Z,1876.00
2023-04-15T12:21:42.257Z,1980.00
2023-04-15T12:22:42.448Z,1892.00
2023-04-15T12:23:44.519Z,1984.00
2023-04-15T12:24:42.774Z,2136.00
2023-04-15T12:25:43.575Z,2244.00
2023-04-15T12:26:44.526Z,2180.00
2023-04-15T12:27:44.024Z,1940.00
2023-04-15T12:28:43.422Z,2064.00
2023-04-15T12:29:45.032Z,2036.00
2023-04-15T12:30:43.847Z,2128.00
2023-04-15T12:31:44.162Z,2688.00
2023-04-15T12:32:44.264Z,2640.00